Flight Track Log - Related Links

Times and Time Zones

All times are in EDT time to prevent confusion due to time zone crossing. See the N340WJ flight status page for this flight to view local times or setup timezone preferences in your user account.

Time Position Orientation Groundspeed Altitude Reporting Facility
EDT Latitude Longitude Course Direction KTS MPH feet Rate Location/Type
Mon 11:53:52 AM 46.8967 -96.8131 122° Southeast 99 114 1,700  Level Minneapolis Center
Mon 11:54:54 AM 46.8794 -96.7728 122° Southeast 117 135 2,700 919 Climbing Minneapolis Center
Mon 11:55:56 AM 46.8597 -96.7350 127° Southeast 114 131 3,600 829 Climbing Minneapolis Center
Mon 11:56:57 AM 46.8394 -96.6928 125° Southeast 120 138 4,400 829 Climbing Minneapolis Center
Mon 11:57:59 AM 46.8183 -96.6483 125° Southeast 125 144 5,300 829 Climbing Minneapolis Center
Mon 11:59:00 AM 46.7983 -96.6064 125° Southeast 130 150 6,100 829 Climbing Minneapolis Center
Mon 12:00:02 PM 46.7753 -96.5597 126° Southeast 135 155 7,000 871 Climbing Minneapolis Center
Mon 12:01:04 PM 46.7519 -96.5103 125° Southeast 141 162 7,900 976 Climbing Minneapolis Center
Mon 12:02:05 PM 46.7281 -96.4611 125° Southeast 142 163 9,000 927 Climbing Minneapolis Center
Mon 12:03:07 PM 46.7067 -96.4169 125° Southeast 139 160 9,800 780 Climbing Minneapolis Center
Mon 12:04:08 PM 46.6811 -96.3669 127° Southeast 145 167 10,600 585 Climbing Minneapolis Center
Mon 12:05:10 PM 46.6536 -96.3106 125° Southeast 161 185 11,000 195 Climbing Minneapolis Center
Mon 12:06:11 PM 46.6203 -96.2425 125° Southeast 195 224 11,000  Level Minneapolis Center
Mon 12:07:13 PM 46.5875 -96.1767 126° Southeast 192 221 11,000  Level Minneapolis Center
Mon 12:08:15 PM 46.5600 -96.1203 125° Southeast 192 221 11,000  Level Minneapolis Center
Mon 12:09:16 PM 46.5261 -96.0508 125° Southeast 189 217 11,000  Level Minneapolis Center
Mon 12:10:18 PM 46.4942 -95.9875 126° Southeast 186 214 11,000  Level Minneapolis Center
Mon 12:11:19 PM 46.4631 -95.9236 125° Southeast 186 214 11,000 49 Level Minneapolis Center
Mon 12:12:21 PM 46.4342 -95.8644 125° Southeast 188 216 11,100 49 Climbing Minneapolis Center
Mon 12:13:22 PM 46.4039 -95.8042 126° Southeast 193 222 11,100  Level Minneapolis Center
Mon 12:14:24 PM 46.3750 -95.7456 126° Southeast 187 215 11,100  Level Minneapolis Center
Mon 12:15:26 PM 46.3389 -95.6717 125° Southeast 187 215 11,100  Level Minneapolis Center
Mon 12:16:27 PM 46.3078 -95.6111 127° Southeast 187 215 11,100  Level Minneapolis Center
Mon 12:17:29 PM 46.2778 -95.5517 126° Southeast 186 214 11,100  Level Minneapolis Center
Mon 12:18:31 PM 46.2486 -95.4942 126° Southeast 184 212 11,100  Level Minneapolis Center
Mon 12:19:32 PM 46.2186 -95.4336 126° Southeast 182 209 11,100  Level Minneapolis Center
Mon 12:20:34 PM 46.1889 -95.3731 125° Southeast 183 211 11,100  Level Minneapolis Center
Mon 12:21:36 PM 46.1586 -95.3142 127° Southeast 183 211 11,100  Level Minneapolis Center
Mon 12:22:37 PM 46.1292 -95.2547 126° Southeast 183 211 11,100  Level Minneapolis Center
Mon 12:23:39 PM 46.0933 -95.1836 126° Southeast 183 211 11,100  Level Minneapolis Center
Mon 12:24:41 PM 46.0633 -95.1239 126° Southeast 184 212 11,100  Level Minneapolis Center
Mon 12:25:43 PM 46.0319 -95.0642 127° Southeast 186 214 11,100  Level Minneapolis Center
Mon 12:26:44 PM 46.0028 -95.0069 126° Southeast 187 215 11,100  Level Minneapolis Center
Mon 12:27:46 PM 45.9731 -94.9469 125° Southeast 185 213 11,100  Level Minneapolis Center
Mon 12:29:00 PM 45.9364 -94.8772 127° Southeast 184 212 11,100  Level Minneapolis Center
Mon 12:30:02 PM 45.9011 -94.8072 126° Southeast 183 211 11,100  Level Minneapolis Center
Mon 12:31:16 PM 45.8708 -94.7472 126° Southeast 184 212 11,100  Level Minneapolis Center
Mon 12:32:18 PM 45.8353 -94.6789 127° Southeast 182 209 11,100  Level Minneapolis Center
Mon 12:33:20 PM 45.8053 -94.6200 126° Southeast 183 211 11,100  Level Minneapolis Center
Mon 12:34:22 PM 45.7742 -94.5631 128° Southeast 183 211 11,100  Level Minneapolis Center
Mon 12:35:24 PM 45.7381 -94.4914 126° Southeast 184 212 11,100 -48 Level Minneapolis Center
Mon 12:36:26 PM 45.7078 -94.4333 127° Southeast 184 212 11,000 -390 Descending Minneapolis Center
Mon 12:37:27 PM 45.6744 -94.3717 128° Southeast 191 220 10,300 -683 Descending Minneapolis Center
Mon 12:38:29 PM 45.6450 -94.2983 120° Southeast 206 237 9,600 -677 Descending Minneapolis Center
Mon 12:39:31 PM 45.6139 -94.2294 123° Southeast 208 239 8,900 -677 Descending Minneapolis Center
Mon 12:40:33 PM 45.5831 -94.1614 123° Southeast 203 234 8,200 -726 Descending Minneapolis Center
Mon 12:41:35 PM 45.5464 -94.0817 123° Southeast 201 231 7,400 -726 Descending Minneapolis Center
Mon 12:42:37 PM 45.5161 -94.0150 123° Southeast 201 231 6,700 -629 Descending Minneapolis Center
Mon 12:43:39 PM 45.4875 -93.9500 122° Southeast 193 222 6,100 -532 Descending Minneapolis Center
Mon 12:44:41 PM 45.4575 -93.8867 124° Southeast 192 221 5,600 -532 Descending Minneapolis Center
Mon 12:45:43 PM 45.4289 -93.8231 123° Southeast 190 219 5,000 -290 Descending Minneapolis Center
Mon 12:46:45 PM 45.4011 -93.7631 123° Southeast 182 209 5,000 -194 Level Minneapolis Center
Mon 12:47:47 PM 45.3689 -93.6931 123° Southeast 179 206 4,600 -435 Descending Minneapolis Center
Mon 12:48:49 PM 45.3394 -93.6300 124° Southeast 189 217 4,100 -242 Descending Minneapolis Center
Mon 12:49:51 PM 45.3125 -93.5697 122° Southeast 183 211 4,100  Level Minneapolis Center
Mon 12:50:53 PM 45.2858 -93.5136 124° Southeast 173 199 4,100 -242 Level Minneapolis Center
Mon 12:51:55 PM 45.2600 -93.4575 123° Southeast 171 197 3,600 -581 Descending Minneapolis Center
Mon 12:52:57 PM 45.2306 -93.3956 124° Southeast 187 215 2,900 -629 Descending Minneapolis Center
Mon 12:53:59 PM 45.1972 -93.3319 127° Southeast 172 198 2,300 -339 Descending Minneapolis Center
Mon 12:55:01 PM 45.1711 -93.2925 133° Southeast 158 182 2,200 -145 Descending Minneapolis Center
Mon 12:56:03 PM 45.1450 -93.2786 159° South 118 136 2,000 -439 Descending Minneapolis Center
Mon 12:57:04 PM 45.1458 -93.2356 88° East 111 128 1,300 -439 Descending Minneapolis Center
Mon 12:58:06 PM 45.1444 -93.1958 93° East 109 125 1,100 -194 Descending Minneapolis Center

Login

Don't have an account? Register now (free) for customized features, flight alerts, and more!